Time;durP1;ratioP1;P1;durP2;ratioP2;P2;SDS_P1;SDS_P2;PMS_P1;PMS_P2;Temp;Humidity;BMP_temperature;BMP_pressure;BME280_temperature;BME280_humidity;BME280_pressure;Samples;Min_cycle;Max_cycle;Signal;HPM_P1;HPM_P2
2021/05/27 00:02:00;;;;;;;5.50;2.53;;;;;;;11.38;74.45;99583.34;4842971;29;20058;-61
2021/05/27 00:04:29;;;;;;;8.57;2.78;;;;;;;11.36;73.79;99579.97;4842708;29;20085;-62
2021/05/27 00:07:01;;;;;;;5.18;2.65;;;;;;;11.37;73.60;99577.38;4842584;29;20100;-62
2021/05/27 00:09:34;;;;;;;5.72;2.78;;;;;;;11.35;73.92;99585.91;4842891;29;20069;-61
2021/05/27 00:12:04;;;;;;;6.65;2.72;;;;;;;11.36;73.46;99574.84;4842588;29;20058;-62
2021/05/27 00:14:36;;;;;;;4.20;2.42;;;;;;;11.36;73.47;99569.75;4842616;29;20061;-62
2021/05/27 00:17:08;;;;;;;4.70;2.47;;;;;;;11.40;73.78;99576.53;4842601;29;20074;-62
2021/05/27 00:19:43;;;;;;;6.07;2.78;;;;;;;11.47;73.48;99578.19;4842261;29;20066;-61
2021/05/27 00:22:18;;;;;;;5.07;2.22;;;;;;;11.52;73.28;99573.91;4842771;29;20077;-62
2021/05/27 00:24:48;;;;;;;3.70;2.25;;;;;;;11.55;73.12;99576.44;4844872;29;20149;-61
2021/05/27 00:27:20;;;;;;;5.90;2.50;;;;;;;11.61;73.01;99571.31;4845818;29;20137;-61
2021/05/27 00:29:49;;;;;;;3.97;2.30;;;;;;;11.58;72.64;99571.31;4845823;29;20132;-62
2021/05/27 00:32:18;;;;;;;4.80;2.50;;;;;;;11.59;72.75;99567.88;4845701;29;20074;-61
2021/05/27 00:34:47;;;;;;;7.83;2.50;;;;;;;11.67;72.60;99568.69;4845736;29;20069;-61
2021/05/27 00:37:19;;;;;;;5.13;2.50;;;;;;;11.67;72.69;99571.25;4845627;29;20057;-61
2021/05/27 00:39:49;;;;;;;6.43;2.90;;;;;;;11.68;72.91;99573.00;4845620;29;20061;-61
2021/05/27 00:42:21;;;;;;;4.53;2.47;;;;;;;11.64;73.35;99566.16;4845793;29;20404;-62
2021/05/27 00:45:01;;;;;;;5.13;2.60;;;;;;;11.61;73.64;99568.75;4845318;29;20054;-62
2021/05/27 00:47:34;;;;;;;5.15;2.80;;;;;;;11.61;73.70;99561.09;4845552;29;20058;-62
2021/05/27 00:50:04;;;;;;;8.27;2.97;;;;;;;11.66;73.31;99563.59;4845502;29;20069;-62
2021/05/27 00:52:34;;;;;;;4.55;2.75;;;;;;;11.69;73.60;99559.34;4845400;29;20066;-61
2021/05/27 00:55:05;;;;;;;;;;;;;;;11.71;73.05;99562.72;4845985;29;20058;-62
2021/05/27 00:57:38;;;;;;;5.30;2.83;;;;;;;11.72;73.32;99569.53;4845365;29;19925;-62
2021/05/27 01:00:18;;;;;;;6.18;3.38;;;;;;;11.70;73.37;99571.28;4845332;29;20054;-61
2021/05/27 01:02:48;;;;;;;8.13;2.95;;;;;;;11.66;73.84;99569.53;4845230;29;20543;-61
2021/05/27 01:05:20;;;;;;;5.07;2.72;;;;;;;11.58;73.97;99566.22;4845449;29;20049;-61
2021/05/27 01:07:53;;;;;;;6.13;3.20;;;;;;;11.56;74.04;99572.19;4845400;29;20501;-61
2021/05/27 01:10:31;;;;;;;4.93;2.65;;;;;;;11.55;74.06;99566.22;4845135;29;20058;-61
2021/05/27 01:13:03;;;;;;;5.20;2.88;;;;;;;11.54;74.11;99568.78;4845069;29;20107;-61
2021/05/27 01:15:35;;;;;;;6.70;2.60;;;;;;;11.47;75.08;99569.69;4837994;29;20054;-61
2021/05/27 01:18:13;;;;;;;6.40;2.85;;;;;;;11.47;75.18;99567.97;4844897;29;20049;-62
2021/05/27 01:20:48;;;;;;;6.82;2.60;;;;;;;11.49;75.09;99573.94;4860579;29;20136;-61
2021/05/27 01:23:22;;;;;;;6.97;2.92;;;;;;;11.41;75.52;99578.25;4863307;29;20061;-62
2021/05/27 01:25:54;;;;;;;7.93;3.25;;;;;;;11.40;75.62;99586.75;4863557;29;20460;-61
2021/05/27 01:28:25;;;;;;;5.95;2.60;;;;;;;11.36;75.65;99569.75;4863230;29;20057;-62
2021/05/27 01:31:01;;;;;;;5.90;2.75;;;;;;;11.37;76.01;99582.50;4862096;29;20472;-62
2021/05/27 01:33:36;;;;;;;4.68;2.47;;;;;;;11.41;75.88;99568.00;4856272;29;20065;-62
2021/05/27 01:36:11;;;;;;;4.55;2.50;;;;;;;11.44;75.87;99568.00;4862269;29;20102;-62
2021/05/27 01:38:45;;;;;;;6.55;2.78;;;;;;;11.45;75.97;99574.78;4863150;29;20057;-62
2021/05/27 01:41:17;;;;;;;5.60;3.00;;;;;;;11.47;75.69;99583.28;4863108;29;20485;-61
2021/05/27 01:43:50;;;;;;;3.50;2.22;;;;;;;11.45;75.42;99579.91;4862993;29;20109;-61
2021/05/27 01:46:30;;;;;;;4.72;2.63;;;;;;;11.47;75.51;99580.75;4862840;29;20061;-62
2021/05/27 01:49:02;;;;;;;6.28;2.72;;;;;;;11.39;75.64;99585.91;4863210;29;20083;-61
2021/05/27 01:51:34;;;;;;;5.10;2.17;;;;;;;11.31;75.48;99589.34;4855301;29;20077;-62
2021/05/27 01:54:05;;;;;;;4.93;2.28;;;;;;;11.31;75.67;99594.47;4863020;29;20053;-61
2021/05/27 01:56:38;;;;;;;4.93;2.78;;;;;;;11.32;75.66;99593.63;4862889;29;20050;-62
2021/05/27 01:59:07;;;;;;;5.95;2.70;;;;;;;11.37;75.75;99591.91;4861816;29;20061;-62
2021/05/27 02:01:50;;;;;;;4.78;2.50;;;;;;;11.40;75.86;99591.84;4862666;29;20061;-62
2021/05/27 02:04:22;;;;;;;5.00;2.50;;;;;;;11.35;76.51;99593.59;4862582;29;20088;-61
2021/05/27 02:06:54;;;;;;;4.60;2.90;;;;;;;11.36;76.57;99592.75;4862831;29;20081;-62
2021/05/27 02:09:27;;;;;;;4.68;2.17;;;;;;;11.30;76.88;99597.91;4862504;29;20065;-62
2021/05/27 02:12:01;;;;;;;4.28;2.50;;;;;;;11.18;77.10;99608.19;4862530;29;20472;-62
2021/05/27 02:14:35;;;;;;;4.78;2.60;;;;;;;10.99;77.63;99609.94;4862287;29;20045;-61
2021/05/27 02:17:07;;;;;;;4.88;2.80;;;;;;;10.95;77.89;99607.41;4862503;29;20064;-61
2021/05/27 02:19:36;;;;;;;4.85;2.90;;;;;;;10.95;78.01;99603.16;4860871;29;20504;-61
2021/05/27 02:22:09;;;;;;;;;;;;;;;10.94;78.82;99600.59;4862654;29;20081;-61
2021/05/27 02:24:52;;;;;;;6.45;2.35;;;;;;;10.81;79.45;99599.78;4862244;29;19931;-61
2021/05/27 02:27:24;;;;;;;4.78;2.80;;;;;;;10.71;79.59;99598.97;4862031;29;20528;-61
2021/05/27 02:29:57;;;;;;;5.50;2.15;;;;;;;10.71;79.80;99595.56;4862457;29;20065;-61
2021/05/27 02:32:31;;;;;;;5.20;3.00;;;;;;;10.77;79.94;99600.66;4862088;29;20045;-61
2021/05/27 02:35:01;;;;;;;4.57;2.45;;;;;;;10.85;80.45;99606.56;4862110;29;20416;-61
2021/05/27 02:37:34;;;;;;;5.22;2.50;;;;;;;10.94;80.03;99613.38;4861792;29;20061;-61
2021/05/27 02:40:09;;;;;;;4.72;2.50;;;;;;;10.83;79.85;99609.97;4845486;29;20061;-61
2021/05/27 02:42:41;;;;;;;6.35;2.30;;;;;;;10.73;80.47;99612.56;4860874;29;20057;-61
2021/05/27 02:45:12;;;;;;;8.05;2.83;;;;;;;10.71;80.26;99611.72;4861917;29;20057;-61
2021/05/27 02:47:50;;;;;;;4.40;2.47;;;;;;;10.78;80.83;99613.41;4861052;29;20053;-61
2021/05/27 02:50:26;;;;;;;4.32;2.28;;;;;;;10.71;81.14;99608.31;4860768;29;20061;-62
2021/05/27 02:53:00;;;;;;;6.32;3.20;;;;;;;10.59;80.83;99599.00;4861917;29;20419;-62
2021/05/27 02:55:34;;;;;;;5.00;3.00;;;;;;;10.59;80.38;99599.00;4861764;29;20077;-61
2021/05/27 02:58:06;;;;;;;6.95;3.30;;;;;;;10.61;81.41;99596.44;4861447;29;20050;-61
2021/05/27 03:00:40;;;;;;;6.75;3.35;;;;;;;10.67;81.11;99597.28;4861704;29;20144;-61
2021/05/27 03:03:24;;;;;;;7.80;4.13;;;;;;;10.67;80.61;99587.06;4861785;29;20062;-61
2021/05/27 03:05:58;;;;;;;5.85;3.50;;;;;;;10.68;81.06;99588.75;4861856;29;20132;-61
2021/05/27 03:08:31;;;;;;;7.00;3.90;;;;;;;10.61;80.61;99597.28;4861911;29;20121;-61
2021/05/27 03:11:04;;;;;;;6.88;4.40;;;;;;;10.67;81.28;99597.28;4860745;29;20501;-61
2021/05/27 03:13:37;;;;;;;8.02;4.43;;;;;;;10.80;81.04;99592.97;4853376;29;20424;-61
2021/05/27 03:16:11;;;;;;;7.75;4.30;;;;;;;10.85;80.86;99590.41;4861452;29;20093;-61
2021/05/27 03:18:40;;;;;;;6.97;3.78;;;;;;;10.93;81.17;99591.22;4861190;29;20072;-62
2021/05/27 03:21:12;;;;;;;7.43;4.35;;;;;;;10.92;81.33;99602.31;4861506;29;20136;-61
2021/05/27 03:23:46;;;;;;;7.43;4.30;;;;;;;10.92;81.12;99597.22;4860328;29;20053;-61
2021/05/27 03:26:20;;;;;;;7.00;4.43;;;;;;;10.94;80.97;99598.88;4861405;29;20460;-61
2021/05/27 03:28:53;;;;;;;6.32;4.00;;;;;;;10.96;80.79;99609.97;4860319;29;20053;-62
2021/05/27 03:31:23;;;;;;;6.68;4.35;;;;;;;11.03;80.67;99611.63;4860086;29;20057;-61
2021/05/27 03:33:55;;;;;;;8.75;4.50;;;;;;;11.07;80.85;99615.88;4861417;29;20057;-61
2021/05/27 03:36:27;;;;;;;7.47;4.23;;;;;;;11.16;80.40;99609.84;4861191;29;20049;-62
2021/05/27 03:38:59;;;;;;;7.28;4.10;;;;;;;11.23;80.46;99616.63;4861613;29;20077;-61
2021/05/27 03:41:32;;;;;;;7.15;3.80;;;;;;;11.31;80.30;99612.34;4861377;29;20130;-62
2021/05/27 03:44:09;;;;;;;6.32;3.58;;;;;;;11.38;80.36;99619.13;4861342;29;20522;-61
2021/05/27 03:46:45;;;;;;;6.70;3.83;;;;;;;11.45;80.38;99610.56;4861182;29;20054;-61
2021/05/27 03:49:17;;;;;;;6.90;4.00;;;;;;;11.51;79.97;99614.81;4860171;29;20077;-62
2021/05/27 03:51:49;;;;;;;6.25;3.72;;;;;;;11.56;80.07;99621.59;4860122;29;20476;-61
2021/05/27 03:54:23;;;;;;;6.18;3.40;;;;;;;11.56;79.64;99619.06;4861177;29;20064;-61
2021/05/27 03:56:53;;;;;;;5.32;3.20;;;;;;;11.60;79.91;99625.84;4860990;29;20057;-61
2021/05/27 04:02:12;;;;;;;5.93;3.35;;;;;;;11.74;79.22;99629.19;4864821;29;20060;-62
2021/05/27 04:07:36;;;;;;;7.53;3.83;;;;;;;11.80;78.47;99623.19;4864453;29;20137;-61
2021/05/27 04:10:10;;;;;;;6.90;3.70;;;;;;;11.82;78.43;99627.44;4864643;29;20061;-61
2021/05/27 04:12:46;;;;;;;6.30;3.25;;;;;;;11.89;78.18;99629.09;4864611;29;20062;-61
2021/05/27 04:15:37;;;;;;;4.72;3.00;;;;;;;11.90;78.17;99629.94;4863341;29;20057;-61
2021/05/27 04:18:08;;;;;;;6.65;3.40;;;;;;;11.95;78.13;99629.03;4863963;29;20456;-62
2021/05/27 04:20:42;;;;;;;6.50;3.22;;;;;;;11.96;77.99;99628.19;4864412;29;20073;-61
2021/05/27 04:23:17;;;;;;;7.82;3.75;;;;;;;11.98;78.06;99629.03;4864690;29;20085;-62
2021/05/27 04:25:49;;;;;;;7.65;3.03;;;;;;;12.01;78.05;99626.44;4864840;29;20088;-61
2021/05/27 04:28:22;;;;;;;6.97;3.03;;;;;;;12.02;77.79;99632.41;4864466;29;20374;-62
2021/05/27 04:33:33;;;;;;;4.93;2.63;;;;;;;12.13;77.33;99632.31;4864246;29;20114;-62
2021/05/27 04:36:06;;;;;;;16.83;8.00;;;;;;;12.22;77.22;99627.13;4864097;29;20062;-62
2021/05/27 04:38:38;;;;;;;14.80;5.20;;;;;;;12.28;76.91;99621.97;4864107;29;20050;-62
2021/05/27 04:41:11;;;;;;;5.15;2.67;;;;;;;12.42;76.53;99625.25;4864092;29;20117;-62
2021/05/27 04:43:46;;;;;;;4.80;2.75;;;;;;;12.78;76.16;99624.91;4863713;29;20073;-61
2021/05/27 04:46:19;;;;;;;5.78;3.65;;;;;;;13.14;75.08;99629.66;4864022;29;20049;-62
2021/05/27 04:48:50;;;;;;;6.65;2.58;;;;;;;13.38;74.13;99625.91;4863895;29;20073;-62
2021/05/27 04:51:20;;;;;;;5.38;2.20;;;;;;;13.68;73.09;99627.19;4863875;29;20057;-62
2021/05/27 04:53:52;;;;;;;7.18;2.60;;;;;;;13.90;72.06;99628.59;4863654;29;20424;-62
2021/05/27 04:56:24;;;;;;;4.78;2.60;;;;;;;14.06;71.33;99628.34;4863779;29;20066;-62
2021/05/27 04:58:55;;;;;;;5.80;2.20;;;;;;;14.25;70.23;99626.34;4863736;29;20049;-62
2021/05/27 05:01:28;;;;;;;7.28;2.20;;;;;;;14.32;68.69;99627.97;4863720;29;20062;-62
2021/05/27 05:04:00;;;;;;;5.18;2.33;;;;;;;14.52;68.32;99631.03;4863658;29;20058;-62
2021/05/27 05:06:29;;;;;;;5.03;2.10;;;;;;;14.65;67.47;99627.38;4863621;29;20053;-62
2021/05/27 05:09:01;;;;;;;4.60;2.17;;;;;;;14.68;67.04;99629.88;4863508;29;20069;-62
2021/05/27 05:11:32;;;;;;;4.60;2.40;;;;;;;14.59;66.13;99632.59;4862839;29;20057;-62
2021/05/27 05:14:05;;;;;;;6.85;2.30;;;;;;;14.55;65.70;99625.84;4863825;29;20065;-62
2021/05/27 05:16:37;;;;;;;3.85;2.03;;;;;;;14.50;66.37;99626.78;4863465;29;20109;-62
2021/05/27 05:19:09;;;;;;;6.00;2.20;;;;;;;14.61;66.17;99628.28;4863152;29;20061;-62
2021/05/27 05:21:41;;;;;;;6.10;2.78;;;;;;;14.62;66.13;99632.56;4863333;29;20068;-62
2021/05/27 05:24:14;;;;;;;4.30;2.40;;;;;;;14.71;65.72;99627.25;4863579;29;20046;-62
2021/05/27 05:26:47;;;;;;;4.78;2.30;;;;;;;14.99;65.25;99621.59;4863341;29;20053;-62
2021/05/27 05:29:24;;;;;;;5.03;2.00;;;;;;;15.12;64.49;99617.91;4863223;29;20412;-62
2021/05/27 05:31:56;;;;;;;5.03;2.40;;;;;;;15.15;64.08;99615.28;4863182;29;20081;-62
2021/05/27 05:34:29;;;;;;;3.92;2.05;;;;;;;15.30;63.75;99620.13;4863111;29;20064;-61
2021/05/27 05:37:01;;;;;;;4.32;2.28;;;;;;;15.51;62.62;99617.09;4863017;29;20060;-62
2021/05/27 05:39:30;;;;;;;6.68;2.10;;;;;;;15.65;62.23;99609.94;4862959;29;20053;-62
2021/05/27 05:42:02;;;;;;;4.50;2.28;;;;;;;15.82;61.27;99610.41;4862848;29;20141;-61
2021/05/27 05:44:35;;;;;;;6.05;2.15;;;;;;;15.82;61.25;99615.56;4862980;29;20065;-62
2021/05/27 05:47:07;;;;;;;5.53;2.55;;;;;;;16.04;60.64;99613.31;4863213;29;20059;-62
2021/05/27 05:49:37;;;;;;;6.50;2.20;;;;;;;16.21;60.65;99616.34;4862520;29;20112;-62
2021/05/27 05:52:09;;;;;;;6.50;2.50;;;;;;;16.36;59.90;99609.97;4862595;29;20048;-62
2021/05/27 05:54:42;;;;;;;4.50;2.13;;;;;;;16.52;59.51;99606.97;4862794;29;20318;-61
2021/05/27 05:57:13;;;;;;;5.80;2.40;;;;;;;16.77;59.66;99602.03;4862648;29;20053;-62
2021/05/27 05:59:43;;;;;;;6.10;2.20;;;;;;;16.95;58.70;99605.81;4862398;29;20141;-62
2021/05/27 06:02:15;;;;;;;;;;;;;;;17.06;57.93;99614.94;4863048;29;20053;-62
2021/05/27 06:04:47;;;;;;;4.32;2.13;;;;;;;17.10;57.56;99608.84;4862638;29;19963;-62
2021/05/27 06:07:30;;;;;;;5.97;2.25;;;;;;;17.24;57.10;99611.84;4862621;29;20065;-62
2021/05/27 06:09:59;;;;;;;5.57;1.95;;;;;;;17.21;56.82;99614.53;4862425;29;20127;-62
2021/05/27 06:12:30;;;;;;;2.95;1.48;;;;;;;17.19;55.75;99616.31;4862252;29;20080;-62
2021/05/27 06:15:09;;;;;;;3.65;2.10;;;;;;;17.26;55.35;99617.81;4862419;29;20080;-63
2021/05/27 06:17:41;;;;;;;4.30;2.03;;;;;;;17.51;55.71;99611.94;4862569;29;20046;-62
2021/05/27 06:20:12;;;;;;;7.00;2.28;;;;;;;17.55;55.65;99610.97;4861884;29;20455;-62
2021/05/27 06:22:45;;;;;;;5.80;2.55;;;;;;;17.59;55.45;99610.03;4862379;29;20109;-62
2021/05/27 06:25:18;;;;;;;4.75;2.10;;;;;;;17.69;55.78;99608.81;4861074;29;20088;-62
2021/05/27 06:27:47;;;;;;;5.60;1.80;;;;;;;17.80;55.58;99602.44;4861984;29;20098;-62
2021/05/27 06:30:23;;;;;;;4.10;1.80;;;;;;;17.96;55.02;99605.38;4862148;29;20097;-62
2021/05/27 06:32:55;;;;;;;6.60;2.13;;;;;;;17.71;54.71;99605.31;4845616;29;20058;-62
2021/05/27 06:35:25;;;;;;;4.43;1.75;;;;;;;17.94;55.35;99602.88;4862043;29;20500;-62
2021/05/27 06:37:57;;;;;;;5.00;2.05;;;;;;;18.27;53.93;99603.50;4861850;29;20556;-62
2021/05/27 06:40:27;;;;;;;5.00;1.42;;;;;;;18.33;52.97;99600.69;4861956;29;20065;-62
2021/05/27 06:42:56;;;;;;;5.13;1.60;;;;;;;18.50;53.34;99598.44;4861800;29;20065;-62
2021/05/27 06:45:27;;;;;;;5.10;1.30;;;;;;;18.61;52.09;99596.34;4861671;29;20054;-62
2021/05/27 06:48:00;;;;;;;3.50;1.40;;;;;;;18.58;52.27;99599.00;4861870;29;20071;-62
2021/05/27 06:50:36;;;;;;;3.63;1.33;;;;;;;18.77;52.48;99606.13;4861825;29;20113;-62
2021/05/27 06:53:10;;;;;;;2.10;1.15;;;;;;;18.90;51.48;99597.03;4861829;29;20053;-62
2021/05/27 06:55:41;;;;;;;2.83;1.27;;;;;;;18.87;51.75;99602.31;4861764;29;20144;-62
2021/05/27 06:58:13;;;;;;;4.80;1.23;;;;;;;19.08;51.82;99597.22;4861564;29;20469;-63
2021/05/27 07:00:43;;;;;;;4.05;1.40;;;;;;;19.10;51.31;99597.19;4861732;29;20110;-62
2021/05/27 07:03:16;;;;;;;2.55;1.13;;;;;;;19.16;51.70;99615.06;4861614;29;20059;-62
2021/05/27 07:05:45;;;;;;;5.38;1.30;;;;;;;19.19;51.10;99610.63;4861376;29;20140;-63
2021/05/27 07:08:17;;;;;;;2.83;1.20;;;;;;;19.21;51.17;99607.97;4861396;29;20412;-62
2021/05/27 07:10:46;;;;;;;2.55;1.05;;;;;;;19.44;51.17;99592.44;4861552;29;20057;-63
2021/05/27 07:13:18;;;;;;;2.58;1.00;;;;;;;19.61;50.63;99597.81;4861883;29;20067;-62
2021/05/27 07:15:52;;;;;;;3.05;1.13;;;;;;;19.80;50.76;99598.78;4861584;29;20076;-62
2021/05/27 07:18:21;;;;;;;3.63;1.13;;;;;;;19.96;50.86;99588.69;4861012;29;20057;-63
2021/05/27 07:20:50;;;;;;;2.70;1.27;;;;;;;20.06;52.27;99600.31;4861024;29;20057;-63
2021/05/27 07:23:19;;;;;;;2.67;1.33;;;;;;;20.22;52.12;99606.63;4861340;29;20504;-62
2021/05/27 07:25:48;;;;;;;2.85;1.10;;;;;;;19.91;51.68;99590.59;4858309;29;20523;-63
2021/05/27 07:28:22;;;;;;;2.88;1.30;;;;;;;19.93;52.49;99605.19;4861367;29;20065;-63
2021/05/27 07:30:52;;;;;;;6.68;1.90;;;;;;;20.17;52.75;99603.34;4861343;29;20054;-63
2021/05/27 07:33:21;;;;;;;1.45;0.90;;;;;;;20.36;51.43;99593.09;4861627;29;20481;-63
2021/05/27 07:35:50;;;;;;;2.20;1.02;;;;;;;20.45;50.46;99590.09;4865201;29;20069;-63
2021/05/27 07:38:19;;;;;;;1.90;0.88;;;;;;;20.48;50.20;99587.38;4864819;29;20037;-63
2021/05/27 07:40:48;;;;;;;2.28;1.08;;;;;;;20.60;49.92;99587.72;4865127;29;20064;-63
2021/05/27 07:43:20;;;;;;;2.00;0.80;;;;;;;20.75;49.59;99586.22;4864909;29;20523;-63
2021/05/27 07:45:54;;;;;;;2.58;0.93;;;;;;;20.90;49.01;99588.13;4864772;29;20054;-63
2021/05/27 07:48:23;;;;;;;1.27;0.80;;;;;;;20.97;49.19;99592.13;4864838;29;20404;-62
2021/05/27 07:50:52;;;;;;;2.83;1.70;;;;;;;21.17;48.07;99584.31;4864634;29;20096;-63
2021/05/27 07:53:22;;;;;;;2.33;1.17;;;;;;;21.31;46.96;99589.72;4864363;29;20073;-63
2021/05/27 07:55:52;;;;;;;1.67;0.98;;;;;;;21.36;45.49;99594.72;4864591;29;20449;-63
2021/05/27 07:58:21;;;;;;;5.53;1.60;;;;;;;21.28;46.54;99597.66;4864343;29;20073;-63
2021/05/27 08:00:50;;;;;;;1.40;0.80;;;;;;;21.31;46.88;99602.72;4864418;29;20049;-63
2021/05/27 08:03:26;;;;;;;1.50;0.85;;;;;;;21.45;46.31;99596.06;4864239;29;20077;-63
2021/05/27 08:05:55;;;;;;;1.25;0.82;;;;;;;21.49;46.35;99616.63;4864650;29;20057;-62
2021/05/27 08:08:27;;;;;;;1.10;0.77;;;;;;;21.48;47.01;99614.06;4864333;29;20053;-63
2021/05/27 08:10:58;;;;;;;1.77;0.80;;;;;;;21.63;47.09;99613.38;4864815;29;20053;-63
2021/05/27 08:13:31;;;;;;;3.50;1.70;;;;;;;21.45;46.72;99614.22;4864113;29;20048;-63
2021/05/27 08:16:00;;;;;;;1.20;0.73;;;;;;;21.57;46.94;99613.66;4864450;29;20103;-63
2021/05/27 08:18:30;;;;;;;3.55;1.10;;;;;;;21.80;47.37;99616.03;4863958;29;20110;-63
2021/05/27 08:20:59;;;;;;;2.15;0.90;;;;;;;21.97;47.74;99613.50;4863967;29;20420;-63
2021/05/27 08:23:28;;;;;;;1.35;0.82;;;;;;;21.88;47.64;99613.94;4864417;29;20101;-62
2021/05/27 08:26:00;;;;;;;2.73;1.17;;;;;;;22.06;47.46;99612.19;4864282;29;20508;-63
2021/05/27 08:28:29;;;;;;;0.82;0.80;;;;;;;22.08;46.65;99606.00;4864791;29;20636;-63
2021/05/27 08:31:01;;;;;;;1.98;1.08;;;;;;;21.82;47.06;99601.19;4864281;29;20411;-63
2021/05/27 08:33:31;;;;;;;3.53;1.00;;;;;;;21.84;46.45;99607.16;4864138;29;20093;-63
2021/05/27 08:35:59;;;;;;;1.42;0.70;;;;;;;21.59;46.89;99606.63;4863957;29;20056;-62
2021/05/27 08:38:28;;;;;;;2.17;0.90;;;;;;;21.20;47.19;99609.31;4863996;29;20580;-62
2021/05/27 08:41:00;;;;;;;2.20;0.90;;;;;;;21.04;47.95;99613.47;4863878;29;20056;-62
2021/05/27 08:43:33;;;;;;;1.98;0.90;;;;;;;21.09;47.52;99612.38;4864064;29;20072;-63
2021/05/27 08:46:04;;;;;;;1.27;0.90;;;;;;;21.10;47.08;99623.59;4862917;29;20144;-63
2021/05/27 08:48:35;;;;;;;2.20;1.00;;;;;;;21.36;47.86;99602.50;4861924;29;20413;-63
2021/05/27 08:51:04;;;;;;;4.43;1.20;;;;;;;21.74;46.50;99595.53;4859155;29;20057;-63
2021/05/27 08:53:33;;;;;;;1.20;0.75;;;;;;;22.10;45.49;99609.38;4863479;29;20070;-62
2021/05/27 08:56:05;;;;;;;1.17;0.90;;;;;;;22.04;45.41;99614.88;4863448;29;20064;-62
2021/05/27 08:58:35;;;;;;;2.20;1.00;;;;;;;22.15;45.24;99612.59;4862627;29;20054;-63
2021/05/27 09:01:04;;;;;;;3.58;1.00;;;;;;;21.89;44.95;99615.59;4863730;29;20057;-62
2021/05/27 09:03:41;;;;;;;4.13;1.15;;;;;;;22.15;44.56;99615.19;4863524;29;20038;-63
2021/05/27 09:06:11;;;;;;;3.67;1.00;;;;;;;22.39;43.87;99613.97;4863726;29;20058;-63
2021/05/27 09:08:40;;;;;;;2.70;1.30;;;;;;;22.62;43.69;99618.91;4862065;29;20098;-63
2021/05/27 09:11:10;;;;;;;3.35;0.90;;;;;;;22.70;44.26;99615.09;4863267;29;20053;-63
2021/05/27 09:13:51;;;;;;;3.25;1.00;;;;;;;22.71;44.75;99616.75;4863057;29;20105;-63
2021/05/27 09:16:20;;;;;;;1.30;0.90;;;;;;;22.74;44.75;99620.06;4863080;29;20129;-63
2021/05/27 09:18:50;;;;;;;1.50;0.80;;;;;;;22.45;45.08;99625.84;4862975;29;20415;-63
2021/05/27 09:21:35;;;;;;;2.30;1.08;;;;;;;22.28;45.06;99624.09;4863231;29;20057;-62
2021/05/27 09:24:04;;;;;;;1.30;0.80;;;;;;;21.78;45.26;99618.69;4863050;29;20053;-62
2021/05/27 09:26:33;;;;;;;2.05;0.88;;;;;;;22.03;45.81;99613.19;4862913;29;20054;-62
2021/05/27 09:29:13;;;;;;;1.70;0.90;;;;;;;22.47;45.57;99622.25;4863134;29;20109;-63
2021/05/27 09:31:57;;;;;;;2.30;0.90;;;;;;;22.52;45.57;99622.88;4863219;29;20116;-62
2021/05/27 09:34:41;;;;;;;2.08;1.05;;;;;;;22.97;45.83;99617.09;4863044;29;20057;-63
2021/05/27 09:37:22;;;;;;;1.20;0.80;;;;;;;23.17;44.86;99608.22;4863059;29;20065;-62
2021/05/27 09:39:55;;;;;;;1.67;0.90;;;;;;;23.24;44.03;99612.19;4862778;29;20053;-62
2021/05/27 09:42:25;;;;;;;2.00;1.00;;;;;;;23.30;44.87;99624.88;4863010;29;20065;-62
2021/05/27 09:44:57;;;;;;;3.17;1.20;;;;;;;23.35;45.31;99620.28;4862879;29;20492;-62
2021/05/27 09:47:33;;;;;;;1.48;0.93;;;;;;;23.58;44.42;99617.31;4862896;29;20484;-62
2021/05/27 09:50:06;;;;;;;2.83;0.90;;;;;;;23.83;43.54;99617.59;4862589;29;20058;-62
2021/05/27 09:52:40;;;;;;;1.58;0.80;;;;;;;24.05;42.81;99621.63;4862526;29;20049;-63
2021/05/27 09:55:12;;;;;;;1.67;0.93;;;;;;;24.22;43.25;99616.31;4862492;29;20050;-63
2021/05/27 09:57:42;;;;;;;1.60;0.90;;;;;;;23.86;41.92;99625.28;4862221;29;20065;-63
2021/05/27 10:00:29;;;;;;;1.38;0.85;;;;;;;23.63;42.30;99625.72;4862616;29;20057;-63
2021/05/27 10:02:58;;;;;;;1.45;0.80;;;;;;;23.05;42.47;99627.09;4862627;29;20077;-62
2021/05/27 10:05:31;;;;;;;1.13;0.87;;;;;;;22.86;42.17;99631.59;4862585;29;20085;-62
2021/05/27 10:08:02;;;;;;;1.60;0.88;;;;;;;22.78;43.56;99638.94;4862438;29;20488;-62
2021/05/27 10:10:56;;;;;;;1.88;1.00;;;;;;;23.00;43.68;99629.09;4862349;29;20568;-62
2021/05/27 10:13:30;;;;;;;;;;;;;;;23.16;44.20;99627.38;4862768;29;20574;-62
2021/05/27 10:16:00;;;;;;;2.75;0.90;;;;;;;23.23;43.20;99632.19;4862437;29;20359;-62
2021/05/27 10:18:29;;;;;;;1.17;0.80;;;;;;;23.26;42.33;99637.22;4861920;29;20057;-64
2021/05/27 10:21:05;;;;;;;;;;;;;;;23.49;42.47;99630.81;4862904;29;20073;-61
2021/05/27 10:23:35;;;;;;;1.15;0.80;;;;;;;23.71;42.58;99625.25;4862368;29;20390;-61
2021/05/27 10:26:10;;;;;;;1.30;0.80;;;;;;;23.74;42.81;99625.94;4862202;29;20073;-63
2021/05/27 10:28:45;;;;;;;1.60;0.90;;;;;;;23.76;43.16;99637.13;4862076;29;20053;-63
2021/05/27 10:31:15;;;;;;;2.20;1.02;;;;;;;23.87;43.44;99629.53;4861785;29;20063;-64
2021/05/27 10:33:44;;;;;;;2.95;1.25;;;;;;;23.90;41.13;99631.97;4861947;29;20113;-63
2021/05/27 10:36:14;;;;;;;2.88;1.00;;;;;;;23.97;41.28;99633.31;4861859;29;20053;-63
2021/05/27 10:38:49;;;;;;;1.20;0.85;;;;;;;23.98;42.49;99627.19;4861743;29;20509;-63
2021/05/27 10:41:21;;;;;;;1.98;0.98;;;;;;;23.96;41.53;99622.97;4861817;29;20053;-63
2021/05/27 10:44:08;;;;;;;1.90;0.90;;;;;;;23.85;42.56;99631.41;4861763;29;20050;-63
2021/05/27 10:46:58;;;;;;;2.50;0.90;;;;;;;23.48;43.15;99630.91;4861624;29;20117;-63
2021/05/27 10:49:48;;;;;;;2.03;0.90;;;;;;;23.11;43.68;99626.78;4861678;29;20454;-63
2021/05/27 10:52:37;;;;;;;2.53;1.08;;;;;;;22.77;42.92;99629.47;4861540;29;20038;-64
2021/05/27 10:55:43;;;;;;;2.15;1.00;;;;;;;22.75;42.66;99634.72;4861350;29;20049;-63
2021/05/27 10:58:11;;;;;;;2.17;0.93;;;;;;;23.04;43.50;99625.41;4861230;29;20073;-63
2021/05/27 11:00:49;;;;;;;2.35;1.00;;;;;;;23.40;42.92;99623.50;4861154;29;20461;-63
2021/05/27 11:03:40;;;;;;;2.15;1.00;;;;;;;24.02;42.32;99628.69;4861535;29;20110;-63
2021/05/27 11:06:28;;;;;;;2.83;0.68;;;;;;;24.32;41.23;99620.91;4861733;29;20057;-63
2021/05/27 11:09:20;;;;;;;1.75;0.90;;;;;;;24.00;41.56;99619.25;4860548;29;20113;-63
2021/05/27 11:11:51;;;;;;;1.40;0.80;;;;;;;24.36;42.67;99616.34;4861277;29;20467;-62
2021/05/27 11:14:21;;;;;;;2.22;0.93;;;;;;;24.68;42.17;99623.16;4861403;29;20049;-63
2021/05/27 11:17:17;;;;;;;2.85;1.00;;;;;;;24.77;42.35;99622.63;4861378;29;20061;-62
2021/05/27 11:19:52;;;;;;;2.45;0.90;;;;;;;24.60;41.46;99614.91;4860987;29;20140;-63
2021/05/27 11:22:44;;;;;;;2.40;0.70;;;;;;;24.65;40.02;99612.88;4861284;29;20132;-63
2021/05/27 11:25:29;;;;;;;0.93;0.70;;;;;;;24.71;38.93;99615.13;4861090;29;20068;-63
2021/05/27 11:28:23;;;;;;;1.00;0.70;;;;;;;24.67;37.99;99608.41;4862050;29;20100;-63
2021/05/27 11:30:56;;;;;;;1.40;0.90;;;;;;;24.67;39.17;99611.00;4859937;29;20057;-63
2021/05/27 11:33:36;;;;;;;3.08;1.00;;;;;;;24.51;39.35;99610.25;4861176;29;20046;-63
2021/05/27 11:36:18;;;;;;;2.03;1.13;;;;;;;23.99;40.80;99602.78;4861182;29;20050;-62
2021/05/27 11:38:47;;;;;;;1.00;0.80;;;;;;;24.19;41.11;99613.88;4860923;29;20049;-63
2021/05/27 11:41:18;;;;;;;1.65;0.90;;;;;;;23.90;40.67;99610.28;4861732;29;20104;-63
2021/05/27 11:43:54;;;;;;;2.30;0.90;;;;;;;23.66;41.62;99609.88;4861261;29;20049;-63
2021/05/27 11:46:26;;;;;;;1.15;0.80;;;;;;;23.34;42.22;99613.38;4861017;29;20049;-62
2021/05/27 11:49:01;;;;;;;1.85;0.80;;;;;;;23.03;41.77;99608.13;4861133;29;20049;-63
2021/05/27 11:51:36;;;;;;;2.78;0.73;;;;;;;22.77;41.36;99611.25;4860934;29;20056;-62
2021/05/27 11:54:07;;;;;;;1.58;0.80;;;;;;;22.47;42.26;99604.03;4860653;29;20137;-62
2021/05/27 11:56:41;;;;;;;2.53;1.00;;;;;;;22.41;43.07;99604.34;4861228;29;20396;-63
2021/05/27 11:59:12;;;;;;;5.53;1.00;;;;;;;22.42;43.46;99610.38;4860790;29;20050;-63
2021/05/27 12:01:43;;;;;;;2.28;0.90;;;;;;;22.54;44.18;99605.41;4860810;29;20060;-62
2021/05/27 12:04:17;;;;;;;2.90;1.02;;;;;;;22.49;44.20;99607.41;4860603;29;20053;-63
2021/05/27 12:06:54;;;;;;;4.45;1.23;;;;;;;22.50;44.50;99598.69;4860570;29;20086;-62
2021/05/27 12:09:42;;;;;;;2.95;1.30;;;;;;;22.71;44.07;99601.13;4860763;29;20068;-63
2021/05/27 12:12:14;;;;;;;4.18;1.20;;;;;;;22.99;44.55;99597.00;4860609;29;20057;-63